createdAt,value
2022-10-04T00:00:09.787Z,5.13
2022-10-04T00:02:37.399Z,5.15
2022-10-04T00:05:08.591Z,5.23
2022-10-04T00:07:44.181Z,5.32
2022-10-04T00:10:22.049Z,5.46
2022-10-04T00:12:52.381Z,5.58
2022-10-04T00:15:23.314Z,5.51
2022-10-04T00:18:10.721Z,5.36
2022-10-04T00:20:53.369Z,5.24
2022-10-04T00:23:23.088Z,5.13
2022-10-04T00:25:51.267Z,5.11
2022-10-04T00:28:20.958Z,5.04
2022-10-04T00:31:06.058Z,5.02
2022-10-04T00:33:42.158Z,5.00
2022-10-04T00:36:26.636Z,4.96
2022-10-04T00:39:23.145Z,4.98
2022-10-04T00:41:49.698Z,5.07
2022-10-04T00:44:24.240Z,5.16
2022-10-04T00:46:52.849Z,5.21
2022-10-04T00:49:24.702Z,5.21
2022-10-04T00:51:58.121Z,5.22
2022-10-04T00:54:41.506Z,5.13
2022-10-04T00:57:15.715Z,5.04
2022-10-04T01:00:01.573Z,5.00
2022-10-04T01:02:44.254Z,4.98
2022-10-04T01:05:20.099Z,4.94
2022-10-04T01:08:04.696Z,4.98
2022-10-04T01:10:36.867Z,5.02
2022-10-04T01:13:14.295Z,4.99
2022-10-04T01:15:50.983Z,4.99
2022-10-04T01:18:20.307Z,4.95
2022-10-04T01:21:09.093Z,4.93
2022-10-04T01:23:41.851Z,5.02
2022-10-04T01:26:42.154Z,5.04
2022-10-04T01:29:16.967Z,4.97
2022-10-04T01:31:51.200Z,4.93
2022-10-04T01:34:23.395Z,4.96
2022-10-04T01:36:53.622Z,5.02
2022-10-04T01:39:22.655Z,5.04
2022-10-04T01:42:09.883Z,5.07
2022-10-04T01:44:48.170Z,5.01
2022-10-04T01:47:21.408Z,5.03
2022-10-04T01:49:49.419Z,5.03
2022-10-04T01:52:27.439Z,5.09
2022-10-04T01:55:03.715Z,5.09
2022-10-04T01:57:50.136Z,5.05
2022-10-04T02:00:17.530Z,5.02
2022-10-04T02:02:56.987Z,5.03
2022-10-04T02:05:42.500Z,4.99
2022-10-04T02:08:13.389Z,4.98
2022-10-04T02:10:43.607Z,5.00
2022-10-04T02:13:18.576Z,5.02
2022-10-04T02:15:47.529Z,5.09
2022-10-04T02:18:17.489Z,5.18
2022-10-04T02:20:45.522Z,5.08
2022-10-04T02:23:13.044Z,5.07
2022-10-04T02:25:39.830Z,5.07
2022-10-04T02:28:11.164Z,5.09
2022-10-04T02:31:18.106Z,5.05
2022-10-04T02:33:48.421Z,5.03
2022-10-04T02:36:16.946Z,5.04
2022-10-04T02:39:07.668Z,5.06
2022-10-04T02:41:48.683Z,5.19
2022-10-04T02:44:23.158Z,5.30
2022-10-04T02:47:03.463Z,5.25
2022-10-04T02:49:35.228Z,5.18
2022-10-04T02:52:12.137Z,5.14
2022-10-04T02:54:52.698Z,5.17
2022-10-04T02:57:22.406Z,5.22
2022-10-04T02:59:50.063Z,5.15
2022-10-04T03:02:31.216Z,5.22
2022-10-04T03:05:08.446Z,5.24
2022-10-04T03:07:37.060Z,5.32
2022-10-04T03:10:11.055Z,5.35
2022-10-04T03:12:39.471Z,5.34
2022-10-04T03:15:12.066Z,5.31
2022-10-04T03:17:42.188Z,5.34
2022-10-04T03:20:11.105Z,5.36
2022-10-04T03:22:40.847Z,5.37
2022-10-04T03:25:18.587Z,5.29
2022-10-04T03:27:45.313Z,5.29
2022-10-04T03:30:16.593Z,5.28
2022-10-04T03:32:43.611Z,5.29
2022-10-04T03:35:37.805Z,5.30
2022-10-04T03:38:11.385Z,5.31
2022-10-04T03:40:42.491Z,5.35
2022-10-04T03:43:12.501Z,5.35
2022-10-04T03:45:40.700Z,5.34
2022-10-04T03:48:13.672Z,5.36
2022-10-04T03:50:47.100Z,5.40
2022-10-04T03:53:28.810Z,5.47
2022-10-04T03:55:57.085Z,5.55
2022-10-04T03:58:28.331Z,5.53
2022-10-04T04:01:09.929Z,5.52
2022-10-04T04:03:45.877Z,5.49
2022-10-04T04:06:17.536Z,5.47
2022-10-04T04:08:48.346Z,5.56
2022-10-04T04:11:33.566Z,5.60
2022-10-04T04:14:08.142Z,5.54
2022-10-04T04:16:36.968Z,5.59
2022-10-04T04:19:11.432Z,5.59
2022-10-04T04:21:38.103Z,5.52
2022-10-04T04:24:12.646Z,5.55
2022-10-04T04:26:45.584Z,5.56
2022-10-04T04:29:22.478Z,5.56
2022-10-04T04:31:54.872Z,5.55
2022-10-04T04:34:27.806Z,5.55
2022-10-04T04:36:59.142Z,5.66
2022-10-04T04:39:37.133Z,5.71
2022-10-04T04:42:12.061Z,5.68
2022-10-04T04:44:48.742Z,5.64
2022-10-04T04:47:28.466Z,5.66
2022-10-04T04:50:05.177Z,5.64
2022-10-04T04:52:32.032Z,5.65
2022-10-04T04:54:58.877Z,5.68
2022-10-04T04:57:25.806Z,5.75
2022-10-04T04:59:57.958Z,5.83
2022-10-04T05:02:54.887Z,5.91
2022-10-04T05:05:25.618Z,5.95
2022-10-04T05:08:10.694Z,6.12
2022-10-04T05:10:39.125Z,6.18
2022-10-04T05:13:08.922Z,6.20
2022-10-04T05:15:38.001Z,6.13
2022-10-04T05:18:17.732Z,6.04
2022-10-04T05:20:49.965Z,6.01
2022-10-04T05:23:16.733Z,6.04
2022-10-04T05:25:43.446Z,6.04
2022-10-04T05:28:12.152Z,6.09
2022-10-04T05:31:00.815Z,6.06
2022-10-04T05:33:45.643Z,6.11
2022-10-04T05:36:13.726Z,6.08
2022-10-04T05:39:02.780Z,6.21
2022-10-04T05:41:42.767Z,6.26
2022-10-04T05:44:51.952Z,6.26
2022-10-04T05:47:24.011Z,6.18
2022-10-04T05:49:54.050Z,6.13
2022-10-04T05:52:51.359Z,6.32
2022-10-04T05:55:27.153Z,6.49
2022-10-04T05:58:18.323Z,6.66
2022-10-04T06:01:18.389Z,6.85
2022-10-04T06:04:03.072Z,6.69
2022-10-04T06:06:29.587Z,6.65
2022-10-04T06:09:19.467Z,6.55
2022-10-04T06:12:04.866Z,6.36
2022-10-04T06:15:08.804Z,6.30
2022-10-04T06:18:13.419Z,6.31
2022-10-04T06:20:58.033Z,6.32
2022-10-04T06:23:27.475Z,6.41
2022-10-04T06:26:07.638Z,6.58
2022-10-04T06:28:39.789Z,6.71
2022-10-04T06:31:44.893Z,6.82
2022-10-04T06:34:35.803Z,7.00
2022-10-04T06:37:20.258Z,7.10
2022-10-04T06:40:34.311Z,7.30
2022-10-04T06:43:09.957Z,7.46
2022-10-04T06:45:54.580Z,7.48
2022-10-04T06:48:23.934Z,7.66
2022-10-04T06:51:29.202Z,7.77
2022-10-04T06:54:32.958Z,7.88
2022-10-04T06:57:22.280Z,7.91
2022-10-04T07:00:20.823Z,8.02
2022-10-04T07:03:08.773Z,8.25
2022-10-04T07:05:50.347Z,8.52
2022-10-04T07:08:31.419Z,8.83
2022-10-04T07:11:25.750Z,9.00
2022-10-04T07:14:05.085Z,9.27
2022-10-04T07:16:43.159Z,9.32
2022-10-04T07:19:30.543Z,9.65
2022-10-04T07:22:12.232Z,9.93
2022-10-04T07:24:50.917Z,10.20
2022-10-04T07:27:22.879Z,10.39
2022-10-04T07:29:55.855Z,10.46
2022-10-04T07:32:27.727Z,10.65
2022-10-04T07:35:09.481Z,10.83
2022-10-04T07:37:58.117Z,10.72
2022-10-04T07:40:33.552Z,10.73
2022-10-04T07:43:05.308Z,10.74
2022-10-04T07:45:35.102Z,10.83
2022-10-04T07:48:13.478Z,10.88
2022-10-04T07:50:57.892Z,11.00
2022-10-04T07:53:31.667Z,11.27
2022-10-04T07:56:08.095Z,11.49
2022-10-04T07:58:53.472Z,11.80
2022-10-04T08:01:39.074Z,12.13
2022-10-04T08:04:18.651Z,12.44
2022-10-04T08:07:00.340Z,12.54
2022-10-04T08:09:51.250Z,12.68
2022-10-04T08:12:24.443Z,12.80
2022-10-04T08:14:55.530Z,12.68
2022-10-04T08:18:04.418Z,13.03
2022-10-04T08:20:52.827Z,12.80
2022-10-04T08:23:36.991Z,13.06
2022-10-04T08:26:27.619Z,13.63
2022-10-04T08:29:51.909Z,13.66
2022-10-04T08:32:36.858Z,13.47
2022-10-04T08:35:06.251Z,13.36
2022-10-04T08:38:01.262Z,13.23
2022-10-04T08:40:51.977Z,13.56
2022-10-04T08:43:56.760Z,13.87
2022-10-04T08:46:51.831Z,14.30
2022-10-04T08:49:30.586Z,14.67
2022-10-04T08:52:18.515Z,14.78
2022-10-04T08:54:59.015Z,14.67
2022-10-04T08:58:16.661Z,14.88
2022-10-04T09:00:52.006Z,15.11
2022-10-04T09:03:42.910Z,14.93
2022-10-04T09:06:15.487Z,14.83
2022-10-04T09:09:00.248Z,14.98
2022-10-04T09:12:05.826Z,15.21
2022-10-04T09:15:02.211Z,15.15
2022-10-04T09:17:46.981Z,15.34
2022-10-04T09:20:54.886Z,15.60
2022-10-04T09:23:30.034Z,15.68
2022-10-04T09:26:21.504Z,15.53
2022-10-04T09:29:15.841Z,15.50
2022-10-04T09:32:16.272Z,15.70
2022-10-04T09:35:03.957Z,15.64
2022-10-04T09:37:33.215Z,15.93
2022-10-04T09:40:00.446Z,16.08
2022-10-04T09:42:49.258Z,15.96
2022-10-04T09:45:15.772Z,15.77
2022-10-04T09:47:46.038Z,15.68
2022-10-04T09:50:28.322Z,15.68
2022-10-04T09:53:08.878Z,16.20
2022-10-04T09:55:46.758Z,16.50
2022-10-04T09:58:58.535Z,16.71
2022-10-04T10:02:00.479Z,16.83
2022-10-04T10:05:00.112Z,16.67
2022-10-04T10:07:43.091Z,16.67
2022-10-04T10:10:59.698Z,16.42
2022-10-04T10:13:42.953Z,16.56
2022-10-04T10:16:29.983Z,16.60
2022-10-04T10:19:15.301Z,16.59
2022-10-04T10:22:00.742Z,16.55
2022-10-04T10:24:30.252Z,16.67
2022-10-04T10:27:15.202Z,16.70
2022-10-04T10:30:04.156Z,16.43
2022-10-04T10:32:45.999Z,16.33
2022-10-04T10:35:21.606Z,16.44
2022-10-04T10:38:15.692Z,16.38
2022-10-04T10:41:03.324Z,16.54
2022-10-04T10:43:42.655Z,16.34
2022-10-04T10:46:16.540Z,16.45
2022-10-04T10:49:01.387Z,16.34
2022-10-04T10:51:55.858Z,16.45
2022-10-04T10:54:47.338Z,16.44
2022-10-04T10:57:38.854Z,16.54
2022-10-04T11:00:20.357Z,16.48
2022-10-04T11:02:50.703Z,16.57
2022-10-04T11:05:23.580Z,16.51
2022-10-04T11:08:04.686Z,16.25
2022-10-04T11:10:52.022Z,16.27
2022-10-04T11:13:18.847Z,16.51
2022-10-04T11:16:17.413Z,16.89
2022-10-04T11:18:58.607Z,17.05
2022-10-04T11:21:55.645Z,17.02
2022-10-04T11:24:37.391Z,16.70
2022-10-04T11:27:16.722Z,16.58
2022-10-04T11:29:55.236Z,16.63
2022-10-04T11:32:30.756Z,16.88
2022-10-04T11:35:09.288Z,17.26
2022-10-04T11:38:00.893Z,16.92
2022-10-04T11:41:00.035Z,16.93
2022-10-04T11:43:48.305Z,17.12
2022-10-04T11:46:36.173Z,16.61
2022-10-04T11:49:21.685Z,16.84
2022-10-04T11:52:04.761Z,16.93
2022-10-04T11:54:47.988Z,17.18
2022-10-04T11:57:49.615Z,17.03
2022-10-04T12:00:20.879Z,16.87
2022-10-04T12:03:18.763Z,16.75
2022-10-04T12:06:10.407Z,16.85
2022-10-04T12:09:15.457Z,16.97
2022-10-04T12:12:38.317Z,17.23
2022-10-04T12:15:17.006Z,17.43
2022-10-04T12:18:19.811Z,17.42
2022-10-04T12:21:23.933Z,17.56
2022-10-04T12:24:07.057Z,17.40
2022-10-04T12:26:55.862Z,17.48
2022-10-04T12:30:13.332Z,17.42
2022-10-04T12:33:05.550Z,17.45
2022-10-04T12:35:47.933Z,17.36
2022-10-04T12:38:21.242Z,17.39
2022-10-04T12:41:06.288Z,17.44
2022-10-04T12:43:57.574Z,17.66
2022-10-04T12:46:53.052Z,17.61
2022-10-04T12:49:44.324Z,17.71
2022-10-04T12:52:19.862Z,17.79
2022-10-04T12:54:59.247Z,17.82
2022-10-04T12:57:34.591Z,17.88
2022-10-04T13:00:16.155Z,17.96
2022-10-04T13:03:05.662Z,17.96
2022-10-04T13:05:38.351Z,17.83
2022-10-04T13:08:13.868Z,17.84
2022-10-04T13:11:18.053Z,17.94
2022-10-04T13:13:53.418Z,17.87
2022-10-04T13:19:50.420Z,17.76
2022-10-04T13:22:37.605Z,17.91
2022-10-04T13:25:35.761Z,17.92
2022-10-04T13:28:23.225Z,17.76
2022-10-04T13:31:00.673Z,17.55
2022-10-04T13:33:38.567Z,17.66
2022-10-04T13:36:05.165Z,17.70
2022-10-04T13:38:31.700Z,17.88
2022-10-04T13:41:23.290Z,17.83
2022-10-04T13:44:20.577Z,17.72
2022-10-04T13:47:08.786Z,17.74
2022-10-04T13:49:56.473Z,17.79
2022-10-04T13:52:44.605Z,17.73
2022-10-04T13:55:56.172Z,17.78
2022-10-04T13:58:29.377Z,17.74
2022-10-04T14:01:23.035Z,17.76
2022-10-04T14:04:14.429Z,17.87
2022-10-04T14:07:18.448Z,17.87
2022-10-04T14:09:51.021Z,17.77
2022-10-04T14:12:47.221Z,17.71
2022-10-04T14:15:41.704Z,17.68
2022-10-04T14:18:32.897Z,17.57
2022-10-04T14:21:15.348Z,17.70
2022-10-04T14:24:15.905Z,17.68
2022-10-04T14:27:08.353Z,17.73
2022-10-04T14:29:47.178Z,17.80
2022-10-04T14:32:52.160Z,17.77
2022-10-04T14:35:34.518Z,17.70
2022-10-04T14:38:27.470Z,17.62
2022-10-04T14:41:31.477Z,17.67
2022-10-04T14:44:17.592Z,17.68
2022-10-04T14:47:11.526Z,17.65
2022-10-04T14:50:07.849Z,17.57
2022-10-04T14:52:54.915Z,17.60
2022-10-04T14:55:57.558Z,17.61
2022-10-04T14:58:49.048Z,17.54
2022-10-04T15:01:19.151Z,17.56
2022-10-04T15:04:11.650Z,17.47
2022-10-04T15:06:48.769Z,17.51
2022-10-04T15:09:24.592Z,17.47
2022-10-04T15:15:12.169Z,17.49
2022-10-04T15:17:48.028Z,17.38
2022-10-04T15:20:24.996Z,17.36
2022-10-04T15:22:55.783Z,17.35
2022-10-04T15:25:51.855Z,17.35
2022-10-04T15:28:40.200Z,17.19
2022-10-04T15:31:34.361Z,17.23
2022-10-04T15:34:13.264Z,17.14
2022-10-04T15:36:50.637Z,17.11
2022-10-04T15:40:09.679Z,17.07
2022-10-04T15:42:37.542Z,16.94
2022-10-04T15:45:19.047Z,16.92
2022-10-04T15:48:11.248Z,16.91
2022-10-04T15:50:40.707Z,16.84
2022-10-04T15:53:45.987Z,16.75
2022-10-04T15:56:45.410Z,16.68
2022-10-04T15:59:39.916Z,16.58
2022-10-04T16:02:31.154Z,16.50
2022-10-04T16:05:14.194Z,16.36
2022-10-04T16:07:52.642Z,16.32
2022-10-04T16:10:34.439Z,16.18
2022-10-04T16:13:23.379Z,15.99
2022-10-04T16:16:15.866Z,15.87
2022-10-04T16:19:01.048Z,15.79
2022-10-04T16:21:46.149Z,15.65
2022-10-04T16:24:18.443Z,15.51
2022-10-04T16:26:45.170Z,15.41
2022-10-04T16:29:43.389Z,15.34
2022-10-04T16:32:29.579Z,15.16
2022-10-04T16:35:17.866Z,15.00
2022-10-04T16:38:00.395Z,14.83
2022-10-04T16:40:32.491Z,14.62
2022-10-04T16:43:01.310Z,14.41
2022-10-04T16:46:06.498Z,14.20
2022-10-04T16:48:57.142Z,14.00
2022-10-04T16:51:34.036Z,13.80
2022-10-04T16:54:19.113Z,13.61
2022-10-04T16:56:56.425Z,13.44
2022-10-04T16:59:43.972Z,13.29
2022-10-04T17:02:25.829Z,13.11
2022-10-04T17:05:14.944Z,12.88
2022-10-04T17:07:54.897Z,12.70
2022-10-04T17:10:49.289Z,12.58
2022-10-04T17:13:36.094Z,12.42
2022-10-04T17:16:14.903Z,12.28
2022-10-04T17:19:00.449Z,12.14
2022-10-04T17:21:58.722Z,11.98
2022-10-04T17:24:44.147Z,11.83
2022-10-04T17:27:45.200Z,11.79
2022-10-04T17:30:21.910Z,11.69
2022-10-04T17:33:38.467Z,11.56
2022-10-04T17:36:37.638Z,11.47
2022-10-04T17:39:28.999Z,11.33
2022-10-04T17:42:07.461Z,11.26
2022-10-04T17:44:45.520Z,11.20
2022-10-04T17:47:16.482Z,11.11
2022-10-04T17:50:32.824Z,11.06
2022-10-04T17:53:30.580Z,11.01
2022-10-04T17:56:00.950Z,10.93
2022-10-04T17:58:46.434Z,10.97
2022-10-04T18:01:34.399Z,11.18
2022-10-04T18:04:23.532Z,11.37
2022-10-04T18:06:57.199Z,11.36
2022-10-04T18:09:40.705Z,11.32
2022-10-04T18:12:26.465Z,11.34
2022-10-04T18:14:59.363Z,11.38
2022-10-04T18:17:31.072Z,11.34
2022-10-04T18:20:27.237Z,11.27
2022-10-04T18:23:03.035Z,11.07
2022-10-04T18:25:32.303Z,10.93
2022-10-04T18:28:22.823Z,10.85
2022-10-04T18:30:51.338Z,10.71
2022-10-04T18:33:26.365Z,10.62
2022-10-04T18:36:17.892Z,10.61
2022-10-04T18:39:00.568Z,10.57
2022-10-04T18:41:47.897Z,10.52
2022-10-04T18:44:17.276Z,10.51
2022-10-04T18:46:50.139Z,10.51
2022-10-04T18:49:21.266Z,10.51
2022-10-04T18:52:01.191Z,10.51
2022-10-04T18:55:12.617Z,10.54
2022-10-04T18:58:01.162Z,10.52
2022-10-04T19:00:55.983Z,10.41
2022-10-04T19:03:37.883Z,10.31
2022-10-04T19:06:19.594Z,10.23
2022-10-04T19:09:04.322Z,10.21
2022-10-04T19:11:40.093Z,10.14
2022-10-04T19:14:25.152Z,10.05
2022-10-04T19:17:21.367Z,9.94
2022-10-04T19:20:04.422Z,9.88
2022-10-04T19:23:02.966Z,9.79
2022-10-04T19:25:35.451Z,9.67
2022-10-04T19:28:07.753Z,9.61
2022-10-04T19:30:40.083Z,9.53
2022-10-04T19:33:15.845Z,9.55
2022-10-04T19:35:58.613Z,9.59
2022-10-04T19:38:59.282Z,9.59
2022-10-04T19:41:43.893Z,9.75
2022-10-04T19:44:24.123Z,9.88
2022-10-04T19:47:05.897Z,9.86
2022-10-04T19:49:56.753Z,9.71
2022-10-04T19:52:46.406Z,9.63
2022-10-04T19:55:45.321Z,9.41
2022-10-04T19:58:58.314Z,9.35
2022-10-04T20:01:26.003Z,9.39
2022-10-04T20:04:12.139Z,9.39
2022-10-04T20:06:48.727Z,9.37
2022-10-04T20:09:41.212Z,9.32
2022-10-04T20:12:35.655Z,9.23
2022-10-04T20:15:23.890Z,9.07
2022-10-04T20:17:54.484Z,9.04
2022-10-04T20:20:39.288Z,9.06
2022-10-04T20:23:10.102Z,9.02
2022-10-04T20:25:45.921Z,9.02
2022-10-04T20:28:32.891Z,9.11
2022-10-04T20:31:02.254Z,9.13
2022-10-04T20:33:49.502Z,9.22
2022-10-04T20:36:21.829Z,9.21
2022-10-04T20:39:01.861Z,9.22
2022-10-04T20:41:28.423Z,9.20
2022-10-04T20:43:58.063Z,9.27
2022-10-04T20:46:26.940Z,9.29
2022-10-04T20:48:54.972Z,9.25
2022-10-04T20:51:24.573Z,9.18
2022-10-04T20:53:51.604Z,9.14
2022-10-04T20:56:32.275Z,9.13
2022-10-04T20:59:04.052Z,9.14
2022-10-04T21:01:35.584Z,9.12
2022-10-04T21:04:32.365Z,9.10
2022-10-04T21:07:05.739Z,9.06
2022-10-04T21:09:34.828Z,9.07
2022-10-04T21:12:02.814Z,9.07
2022-10-04T21:14:31.298Z,9.01
2022-10-04T21:17:04.951Z,8.98
2022-10-04T21:19:38.846Z,9.05
2022-10-04T21:22:08.098Z,9.19
2022-10-04T21:24:39.640Z,9.28
2022-10-04T21:27:10.598Z,9.31
2022-10-04T21:29:38.214Z,9.37
2022-10-04T21:32:05.626Z,9.46
2022-10-04T21:34:52.573Z,9.43
2022-10-04T21:37:19.222Z,9.37
2022-10-04T21:39:45.910Z,9.39
2022-10-04T21:42:12.559Z,9.32
2022-10-04T21:44:39.150Z,9.32
2022-10-04T21:47:05.802Z,9.32
2022-10-04T21:49:32.503Z,9.31
2022-10-04T21:51:59.104Z,9.34
2022-10-04T21:54:25.681Z,9.34
2022-10-04T21:56:53.925Z,9.31
2022-10-04T21:59:21.196Z,9.26
2022-10-04T22:01:48.039Z,9.26
2022-10-04T22:04:14.804Z,9.28
2022-10-04T22:06:41.512Z,9.33
2022-10-04T22:09:09.322Z,9.49
2022-10-04T22:11:36.630Z,9.52
2022-10-04T22:14:03.582Z,9.50
2022-10-04T22:16:30.462Z,9.51
2022-10-04T22:18:57.151Z,9.53
2022-10-04T22:21:23.745Z,9.40
2022-10-04T22:23:50.357Z,9.21
2022-10-04T22:26:22.108Z,9.09
2022-10-04T22:28:51.478Z,8.96
2022-10-04T22:31:20.905Z,8.93
2022-10-04T22:33:49.666Z,9.00
2022-10-04T22:36:25.159Z,9.12
2022-10-04T22:39:00.625Z,9.09
2022-10-04T22:41:48.426Z,9.03
2022-10-04T22:44:19.045Z,9.00
2022-10-04T22:46:49.920Z,9.04
2022-10-04T22:49:20.219Z,9.06
2022-10-04T22:51:49.611Z,8.99
2022-10-04T22:54:18.517Z,9.02
2022-10-04T22:56:46.010Z,9.09
2022-10-04T22:59:15.000Z,9.07
2022-10-04T23:01:43.519Z,9.00
2022-10-04T23:04:21.038Z,8.95
2022-10-04T23:06:48.669Z,8.93
2022-10-04T23:09:15.560Z,8.91
2022-10-04T23:11:42.668Z,8.92
2022-10-04T23:14:09.326Z,8.97
2022-10-04T23:16:38.796Z,8.96
2022-10-04T23:19:20.277Z,8.99
2022-10-04T23:21:50.143Z,9.00
2022-10-04T23:24:22.287Z,9.03
2022-10-04T23:26:56.467Z,9.21
2022-10-04T23:29:34.829Z,9.30
2022-10-04T23:32:15.956Z,9.34
2022-10-04T23:34:46.165Z,9.38
2022-10-04T23:37:25.792Z,9.37
2022-10-04T23:39:52.350Z,9.31
2022-10-04T23:42:28.970Z,9.21
2022-10-04T23:44:57.676Z,9.09
2022-10-04T23:47:32.063Z,9.02
2022-10-04T23:49:58.643Z,9.01
2022-10-04T23:52:34.703Z,9.00
2022-10-04T23:55:01.949Z,8.93
2022-10-04T23:57:31.125Z,8.83
